sensor_id;sensor_type;location;lat;lon;timestamp;temperature;humidity
13585;DHT22;6863;48.402;9.994;2023-04-03T00:00:22;3.70;99.90
13585;DHT22;6863;48.402;9.994;2023-04-03T00:02:48;3.70;99.90
13585;DHT22;6863;48.402;9.994;2023-04-03T00:05:13;3.70;99.90
13585;DHT22;6863;48.402;9.994;2023-04-03T00:07:39;3.70;99.90
13585;DHT22;6863;48.402;9.994;2023-04-03T00:10:05;3.70;99.90
13585;DHT22;6863;48.402;9.994;2023-04-03T00:12:31;3.60;99.90
13585;DHT22;6863;48.402;9.994;2023-04-03T00:14:56;3.60;99.90
13585;DHT22;6863;48.402;9.994;2023-04-03T00:17:22;3.60;99.90
13585;DHT22;6863;48.402;9.994;2023-04-03T00:19:47;3.60;99.90
13585;DHT22;6863;48.402;9.994;2023-04-03T00:22:13;3.50;99.90
13585;DHT22;6863;48.402;9.994;2023-04-03T00:24:38;3.50;99.90
13585;DHT22;6863;48.402;9.994;2023-04-03T00:27:04;3.50;99.90
13585;DHT22;6863;48.402;9.994;2023-04-03T00:29:30;3.50;99.90
13585;DHT22;6863;48.402;9.994;2023-04-03T00:31:55;3.40;99.90
13585;DHT22;6863;48.402;9.994;2023-04-03T00:34:21;3.40;99.90
13585;DHT22;6863;48.402;9.994;2023-04-03T00:36:46;3.50;99.90
13585;DHT22;6863;48.402;9.994;2023-04-03T00:39:12;3.40;99.40
13585;DHT22;6863;48.402;9.994;2023-04-03T00:41:37;3.40;99.10
13585;DHT22;6863;48.402;9.994;2023-04-03T00:46:40;3.40;98.20
13585;DHT22;6863;48.402;9.994;2023-04-03T00:49:06;3.40;98.20
13585;DHT22;6863;48.402;9.994;2023-04-03T00:51:32;3.40;98.10
13585;DHT22;6863;48.402;9.994;2023-04-03T00:53:59;3.40;98.00
13585;DHT22;6863;48.402;9.994;2023-04-03T00:56:27;3.40;98.00
13585;DHT22;6863;48.402;9.994;2023-04-03T00:59:06;3.40;98.20
13585;DHT22;6863;48.402;9.994;2023-04-03T01:01:34;3.40;98.10
13585;DHT22;6863;48.402;9.994;2023-04-03T01:04:01;3.40;97.90
13585;DHT22;6863;48.402;9.994;2023-04-03T01:06:30;3.30;97.80
13585;DHT22;6863;48.402;9.994;2023-04-03T01:08:58;3.30;97.70
13585;DHT22;6863;48.402;9.994;2023-04-03T01:11:23;3.40;98.50
13585;DHT22;6863;48.402;9.994;2023-04-03T01:13:50;3.40;98.00
13585;DHT22;6863;48.402;9.994;2023-04-03T01:16:15;3.40;98.00
13585;DHT22;6863;48.402;9.994;2023-04-03T01:18:42;3.30;98.10
13585;DHT22;6863;48.402;9.994;2023-04-03T01:23:59;3.30;97.30
13585;DHT22;6863;48.402;9.994;2023-04-03T01:26:28;3.20;97.30
13585;DHT22;6863;48.402;9.994;2023-04-03T01:28:55;3.20;97.50
13585;DHT22;6863;48.402;9.994;2023-04-03T01:31:47;3.20;97.50
13585;DHT22;6863;48.402;9.994;2023-04-03T01:34:12;3.20;97.90
13585;DHT22;6863;48.402;9.994;2023-04-03T01:36:38;3.20;97.90
13585;DHT22;6863;48.402;9.994;2023-04-03T01:39:04;3.20;97.50
13585;DHT22;6863;48.402;9.994;2023-04-03T01:41:29;3.20;96.70
13585;DHT22;6863;48.402;9.994;2023-04-03T01:43:55;3.20;96.90
13585;DHT22;6863;48.402;9.994;2023-04-03T01:46:21;3.20;97.30
13585;DHT22;6863;48.402;9.994;2023-04-03T01:48:49;3.20;96.30
13585;DHT22;6863;48.402;9.994;2023-04-03T01:51:15;3.20;95.70
13585;DHT22;6863;48.402;9.994;2023-04-03T01:53:40;3.20;95.50
13585;DHT22;6863;48.402;9.994;2023-04-03T01:56:06;3.20;95.60
13585;DHT22;6863;48.402;9.994;2023-04-03T01:58:32;3.20;95.30
13585;DHT22;6863;48.402;9.994;2023-04-03T02:00:57;3.20;95.30
13585;DHT22;6863;48.402;9.994;2023-04-03T02:03:23;3.20;95.10
13585;DHT22;6863;48.402;9.994;2023-04-03T02:05:49;3.20;95.40
13585;DHT22;6863;48.402;9.994;2023-04-03T02:08:15;3.20;95.10
13585;DHT22;6863;48.402;9.994;2023-04-03T02:10:43;3.20;94.70
13585;DHT22;6863;48.402;9.994;2023-04-03T02:13:10;3.20;94.90
13585;DHT22;6863;48.402;9.994;2023-04-03T02:15:38;3.20;94.80
13585;DHT22;6863;48.402;9.994;2023-04-03T02:18:04;3.20;94.70
13585;DHT22;6863;48.402;9.994;2023-04-03T02:20:30;3.20;94.80
13585;DHT22;6863;48.402;9.994;2023-04-03T02:22:55;3.20;94.50
13585;DHT22;6863;48.402;9.994;2023-04-03T02:25:23;3.20;94.80
13585;DHT22;6863;48.402;9.994;2023-04-03T02:27:49;3.20;95.20
13585;DHT22;6863;48.402;9.994;2023-04-03T02:30:15;3.20;95.60
13585;DHT22;6863;48.402;9.994;2023-04-03T02:32:42;3.20;94.90
13585;DHT22;6863;48.402;9.994;2023-04-03T02:35:08;3.20;94.70
13585;DHT22;6863;48.402;9.994;2023-04-03T02:37:34;3.20;94.20
13585;DHT22;6863;48.402;9.994;2023-04-03T02:40:00;3.20;94.20
13585;DHT22;6863;48.402;9.994;2023-04-03T02:42:26;3.20;94.40
13585;DHT22;6863;48.402;9.994;2023-04-03T02:44:51;3.10;94.80
13585;DHT22;6863;48.402;9.994;2023-04-03T02:47:17;3.10;95.10
13585;DHT22;6863;48.402;9.994;2023-04-03T02:49:42;3.10;95.00
13585;DHT22;6863;48.402;9.994;2023-04-03T02:52:10;3.10;95.50
13585;DHT22;6863;48.402;9.994;2023-04-03T02:54:35;3.10;95.90
13585;DHT22;6863;48.402;9.994;2023-04-03T02:57:01;3.10;96.00
13585;DHT22;6863;48.402;9.994;2023-04-03T02:59:27;3.10;96.20
13585;DHT22;6863;48.402;9.994;2023-04-03T03:01:52;3.20;96.40
13585;DHT22;6863;48.402;9.994;2023-04-03T03:04:18;3.10;96.30
13585;DHT22;6863;48.402;9.994;2023-04-03T03:06:44;3.10;96.00
13585;DHT22;6863;48.402;9.994;2023-04-03T03:09:09;3.10;95.40
13585;DHT22;6863;48.402;9.994;2023-04-03T03:11:35;3.10;95.50
13585;DHT22;6863;48.402;9.994;2023-04-03T03:14:00;3.10;95.90
13585;DHT22;6863;48.402;9.994;2023-04-03T03:16:26;3.10;95.10
13585;DHT22;6863;48.402;9.994;2023-04-03T03:18:52;3.10;95.40
13585;DHT22;6863;48.402;9.994;2023-04-03T03:21:17;3.10;95.20
13585;DHT22;6863;48.402;9.994;2023-04-03T03:23:43;3.00;93.90
13585;DHT22;6863;48.402;9.994;2023-04-03T03:26:10;3.00;94.30
13585;DHT22;6863;48.402;9.994;2023-04-03T03:28:37;3.00;94.00
13585;DHT22;6863;48.402;9.994;2023-04-03T03:31:04;3.00;93.60
13585;DHT22;6863;48.402;9.994;2023-04-03T03:33:30;2.90;92.50
13585;DHT22;6863;48.402;9.994;2023-04-03T03:35:55;2.90;92.40
13585;DHT22;6863;48.402;9.994;2023-04-03T03:38:22;2.90;92.60
13585;DHT22;6863;48.402;9.994;2023-04-03T03:40:48;2.90;93.00
13585;DHT22;6863;48.402;9.994;2023-04-03T03:43:15;2.90;93.00
13585;DHT22;6863;48.402;9.994;2023-04-03T03:45:41;2.90;93.30
13585;DHT22;6863;48.402;9.994;2023-04-03T03:48:07;2.90;92.90
13585;DHT22;6863;48.402;9.994;2023-04-03T03:50:32;2.90;92.50
13585;DHT22;6863;48.402;9.994;2023-04-03T03:52:58;2.90;92.30
13585;DHT22;6863;48.402;9.994;2023-04-03T03:55:23;2.90;92.00
13585;DHT22;6863;48.402;9.994;2023-04-03T03:57:49;2.90;92.10
13585;DHT22;6863;48.402;9.994;2023-04-03T04:00:15;2.90;92.10
13585;DHT22;6863;48.402;9.994;2023-04-03T04:02:41;2.80;92.30
13585;DHT22;6863;48.402;9.994;2023-04-03T04:05:07;2.80;92.80
13585;DHT22;6863;48.402;9.994;2023-04-03T04:07:33;2.80;92.60
13585;DHT22;6863;48.402;9.994;2023-04-03T04:09:59;2.80;92.50
13585;DHT22;6863;48.402;9.994;2023-04-03T04:12:24;2.80;92.70
13585;DHT22;6863;48.402;9.994;2023-04-03T04:14:50;2.80;92.50
13585;DHT22;6863;48.402;9.994;2023-04-03T04:17:16;2.80;92.40
13585;DHT22;6863;48.402;9.994;2023-04-03T04:19:41;2.80;92.20
13585;DHT22;6863;48.402;9.994;2023-04-03T04:22:07;2.80;92.60
13585;DHT22;6863;48.402;9.994;2023-04-03T04:24:33;2.80;92.70
13585;DHT22;6863;48.402;9.994;2023-04-03T04:26:58;2.80;92.80
13585;DHT22;6863;48.402;9.994;2023-04-03T04:29:24;2.80;93.00
13585;DHT22;6863;48.402;9.994;2023-04-03T04:31:50;2.80;92.90
13585;DHT22;6863;48.402;9.994;2023-04-03T04:34:15;2.80;93.50
13585;DHT22;6863;48.402;9.994;2023-04-03T04:36:41;2.80;93.40
13585;DHT22;6863;48.402;9.994;2023-04-03T04:39:07;2.80;93.60
13585;DHT22;6863;48.402;9.994;2023-04-03T04:41:33;2.90;93.60
13585;DHT22;6863;48.402;9.994;2023-04-03T04:46:28;2.90;94.00
13585;DHT22;6863;48.402;9.994;2023-04-03T04:48:53;2.90;94.20
13585;DHT22;6863;48.402;9.994;2023-04-03T04:51:19;2.90;94.30
13585;DHT22;6863;48.402;9.994;2023-04-03T04:53:45;2.80;94.40
13585;DHT22;6863;48.402;9.994;2023-04-03T04:56:11;2.90;94.40
13585;DHT22;6863;48.402;9.994;2023-04-03T04:58:37;2.80;94.50
13585;DHT22;6863;48.402;9.994;2023-04-03T05:01:04;2.80;94.60
13585;DHT22;6863;48.402;9.994;2023-04-03T05:03:30;2.80;94.70
13585;DHT22;6863;48.402;9.994;2023-04-03T05:05:56;2.80;95.30
13585;DHT22;6863;48.402;9.994;2023-04-03T05:08:22;2.90;95.50
13585;DHT22;6863;48.402;9.994;2023-04-03T05:10:48;2.90;95.60
13585;DHT22;6863;48.402;9.994;2023-04-03T05:13:14;2.90;95.60
13585;DHT22;6863;48.402;9.994;2023-04-03T05:15:39;3.00;96.00
13585;DHT22;6863;48.402;9.994;2023-04-03T05:18:05;3.00;95.80
13585;DHT22;6863;48.402;9.994;2023-04-03T05:20:33;3.00;95.40
13585;DHT22;6863;48.402;9.994;2023-04-03T05:22:58;3.00;95.50
13585;DHT22;6863;48.402;9.994;2023-04-03T05:25:24;3.00;95.50
13585;DHT22;6863;48.402;9.994;2023-04-03T05:27:50;3.00;95.60
13585;DHT22;6863;48.402;9.994;2023-04-03T05:30:16;3.00;95.40
13585;DHT22;6863;48.402;9.994;2023-04-03T05:32:42;3.00;95.70
13585;DHT22;6863;48.402;9.994;2023-04-03T05:35:08;3.00;95.80
13585;DHT22;6863;48.402;9.994;2023-04-03T05:37:36;3.00;95.50
13585;DHT22;6863;48.402;9.994;2023-04-03T05:40:03;3.00;95.80
13585;DHT22;6863;48.402;9.994;2023-04-03T05:42:29;3.10;95.50
13585;DHT22;6863;48.402;9.994;2023-04-03T05:44:55;3.20;95.70
13585;DHT22;6863;48.402;9.994;2023-04-03T05:47:21;3.20;95.60
13585;DHT22;6863;48.402;9.994;2023-04-03T05:49:46;3.30;95.50
13585;DHT22;6863;48.402;9.994;2023-04-03T05:52:23;3.30;95.40
13585;DHT22;6863;48.402;9.994;2023-04-03T05:54:51;3.30;95.60
13585;DHT22;6863;48.402;9.994;2023-04-03T05:57:17;3.30;95.40
13585;DHT22;6863;48.402;9.994;2023-04-03T05:59:44;3.30;95.40
13585;DHT22;6863;48.402;9.994;2023-04-03T06:02:15;3.20;95.50
13585;DHT22;6863;48.402;9.994;2023-04-03T06:04:41;3.20;95.60
13585;DHT22;6863;48.402;9.994;2023-04-03T06:07:08;3.20;95.80
13585;DHT22;6863;48.402;9.994;2023-04-03T06:09:35;3.30;95.80
13585;DHT22;6863;48.402;9.994;2023-04-03T06:12:01;3.30;95.70
13585;DHT22;6863;48.402;9.994;2023-04-03T06:14:27;3.30;95.80
13585;DHT22;6863;48.402;9.994;2023-04-03T06:16:53;3.30;95.70
13585;DHT22;6863;48.402;9.994;2023-04-03T06:19:19;3.40;96.00
13585;DHT22;6863;48.402;9.994;2023-04-03T06:21:45;3.40;95.80
13585;DHT22;6863;48.402;9.994;2023-04-03T06:24:15;3.30;95.80
13585;DHT22;6863;48.402;9.994;2023-04-03T06:26:40;3.40;96.10
13585;DHT22;6863;48.402;9.994;2023-04-03T06:29:06;3.50;96.10
13585;DHT22;6863;48.402;9.994;2023-04-03T06:31:32;3.50;96.20
13585;DHT22;6863;48.402;9.994;2023-04-03T06:33:58;3.40;96.50
13585;DHT22;6863;48.402;9.994;2023-04-03T06:36:23;3.40;96.70
13585;DHT22;6863;48.402;9.994;2023-04-03T06:38:49;3.50;96.40
13585;DHT22;6863;48.402;9.994;2023-04-03T06:41:15;3.50;96.20
13585;DHT22;6863;48.402;9.994;2023-04-03T06:43:44;3.50;96.30
13585;DHT22;6863;48.402;9.994;2023-04-03T06:46:21;3.60;96.20
13585;DHT22;6863;48.402;9.994;2023-04-03T06:48:47;3.70;96.10
13585;DHT22;6863;48.402;9.994;2023-04-03T06:51:22;3.70;96.10
13585;DHT22;6863;48.402;9.994;2023-04-03T06:53:49;3.70;95.90
13585;DHT22;6863;48.402;9.994;2023-04-03T06:56:15;3.60;95.80
13585;DHT22;6863;48.402;9.994;2023-04-03T06:58:41;3.60;96.00
13585;DHT22;6863;48.402;9.994;2023-04-03T07:01:08;3.70;96.00
13585;DHT22;6863;48.402;9.994;2023-04-03T07:03:35;3.80;95.90
13585;DHT22;6863;48.402;9.994;2023-04-03T07:06:02;3.80;95.60
13585;DHT22;6863;48.402;9.994;2023-04-03T07:08:28;3.80;95.70
13585;DHT22;6863;48.402;9.994;2023-04-03T07:10:54;3.80;95.60
13585;DHT22;6863;48.402;9.994;2023-04-03T07:13:20;3.90;95.50
13585;DHT22;6863;48.402;9.994;2023-04-03T07:15:45;3.80;95.50
13585;DHT22;6863;48.402;9.994;2023-04-03T07:18:11;3.90;95.30
13585;DHT22;6863;48.402;9.994;2023-04-03T07:20:38;4.10;95.40
13585;DHT22;6863;48.402;9.994;2023-04-03T07:23:04;4.10;95.10
13585;DHT22;6863;48.402;9.994;2023-04-03T07:25:30;4.10;95.10
13585;DHT22;6863;48.402;9.994;2023-04-03T07:27:57;4.20;95.40
13585;DHT22;6863;48.402;9.994;2023-04-03T07:30:23;4.30;94.90
13585;DHT22;6863;48.402;9.994;2023-04-03T07:32:48;4.40;94.90
13585;DHT22;6863;48.402;9.994;2023-04-03T07:35:14;4.50;94.70
13585;DHT22;6863;48.402;9.994;2023-04-03T07:37:40;4.50;94.50
13585;DHT22;6863;48.402;9.994;2023-04-03T07:40:06;4.60;94.60
13585;DHT22;6863;48.402;9.994;2023-04-03T07:42:34;4.60;94.10
13585;DHT22;6863;48.402;9.994;2023-04-03T07:45:01;4.70;94.10
13585;DHT22;6863;48.402;9.994;2023-04-03T07:47:27;4.80;94.10
13585;DHT22;6863;48.402;9.994;2023-04-03T07:49:56;5.00;93.80
13585;DHT22;6863;48.402;9.994;2023-04-03T07:52:22;5.00;93.60
13585;DHT22;6863;48.402;9.994;2023-04-03T07:54:48;5.40;93.50
13585;DHT22;6863;48.402;9.994;2023-04-03T07:57:14;5.50;92.70
13585;DHT22;6863;48.402;9.994;2023-04-03T07:59:40;5.70;92.70
13585;DHT22;6863;48.402;9.994;2023-04-03T08:02:09;5.70;92.40
13585;DHT22;6863;48.402;9.994;2023-04-03T08:04:35;5.80;91.90
13585;DHT22;6863;48.402;9.994;2023-04-03T08:07:01;5.90;91.70
13585;DHT22;6863;48.402;9.994;2023-04-03T08:09:27;6.00;91.70
13585;DHT22;6863;48.402;9.994;2023-04-03T08:11:52;6.20;91.50
13585;DHT22;6863;48.402;9.994;2023-04-03T08:14:19;6.30;91.00
13585;DHT22;6863;48.402;9.994;2023-04-03T08:16:46;6.60;91.20
13585;DHT22;6863;48.402;9.994;2023-04-03T08:19:12;7.00;90.30
13585;DHT22;6863;48.402;9.994;2023-04-03T08:21:40;7.30;89.30
13585;DHT22;6863;48.402;9.994;2023-04-03T08:24:07;7.10;88.20
13585;DHT22;6863;48.402;9.994;2023-04-03T08:26:32;6.90;87.20
13585;DHT22;6863;48.402;9.994;2023-04-03T08:28:58;6.90;88.00
13585;DHT22;6863;48.402;9.994;2023-04-03T08:31:24;6.80;86.20
13585;DHT22;6863;48.402;9.994;2023-04-03T08:33:50;6.80;86.20
13585;DHT22;6863;48.402;9.994;2023-04-03T08:36:22;6.80;86.70
13585;DHT22;6863;48.402;9.994;2023-04-03T08:38:49;7.00;86.60
13585;DHT22;6863;48.402;9.994;2023-04-03T08:41:40;7.20;86.30
13585;DHT22;6863;48.402;9.994;2023-04-03T08:49:40;7.20;87.90
13585;DHT22;6863;48.402;9.994;2023-04-03T08:52:15;7.60;86.90
13585;DHT22;6863;48.402;9.994;2023-04-03T08:55:01;7.50;86.10
13585;DHT22;6863;48.402;9.994;2023-04-03T08:57:38;7.60;85.00
13585;DHT22;6863;48.402;9.994;2023-04-03T09:00:23;7.60;85.20
13585;DHT22;6863;48.402;9.994;2023-04-03T09:02:52;7.90;84.40
13585;DHT22;6863;48.402;9.994;2023-04-03T09:05:20;8.00;83.60
13585;DHT22;6863;48.402;9.994;2023-04-03T09:07:51;7.80;83.50
13585;DHT22;6863;48.402;9.994;2023-04-03T09:10:24;7.80;82.70
13585;DHT22;6863;48.402;9.994;2023-04-03T09:13:26;7.70;83.60
13585;DHT22;6863;48.402;9.994;2023-04-03T09:15:56;7.80;82.90
13585;DHT22;6863;48.402;9.994;2023-04-03T09:18:39;7.80;82.80
13585;DHT22;6863;48.402;9.994;2023-04-03T09:21:20;7.80;82.50
13585;DHT22;6863;48.402;9.994;2023-04-03T09:23:52;7.60;81.90
13585;DHT22;6863;48.402;9.994;2023-04-03T09:26:24;7.70;83.50
13585;DHT22;6863;48.402;9.994;2023-04-03T09:28:55;7.80;81.90
13585;DHT22;6863;48.402;9.994;2023-04-03T09:31:27;7.80;82.20
13585;DHT22;6863;48.402;9.994;2023-04-03T09:33:58;8.20;81.60
13585;DHT22;6863;48.402;9.994;2023-04-03T09:36:43;8.20;81.30
13585;DHT22;6863;48.402;9.994;2023-04-03T09:39:21;7.90;80.40
13585;DHT22;6863;48.402;9.994;2023-04-03T09:42:20;7.80;79.90
13585;DHT22;6863;48.402;9.994;2023-04-03T09:45:05;7.50;80.80
13585;DHT22;6863;48.402;9.994;2023-04-03T09:47:33;7.50;81.40
13585;DHT22;6863;48.402;9.994;2023-04-03T09:52:42;7.50;81.10
13585;DHT22;6863;48.402;9.994;2023-04-03T09:55:23;7.40;81.40
13585;DHT22;6863;48.402;9.994;2023-04-03T09:57:53;7.30;82.80
13585;DHT22;6863;48.402;9.994;2023-04-03T10:00:26;7.20;81.60
13585;DHT22;6863;48.402;9.994;2023-04-03T10:02:54;7.00;82.20
13585;DHT22;6863;48.402;9.994;2023-04-03T10:05:31;7.00;82.20
13585;DHT22;6863;48.402;9.994;2023-04-03T10:10:46;7.00;83.30
13585;DHT22;6863;48.402;9.994;2023-04-03T10:13:15;7.30;82.40
13585;DHT22;6863;48.402;9.994;2023-04-03T10:15:51;7.60;81.40
13585;DHT22;6863;48.402;9.994;2023-04-03T10:21:10;7.70;80.40
13585;DHT22;6863;48.402;9.994;2023-04-03T10:23:44;7.50;79.70
13585;DHT22;6863;48.402;9.994;2023-04-03T10:26:22;7.20;79.70
13585;DHT22;6863;48.402;9.994;2023-04-03T10:29:07;7.10;80.10
13585;DHT22;6863;48.402;9.994;2023-04-03T10:37:12;7.10;77.10
13585;DHT22;6863;48.402;9.994;2023-04-03T10:45:26;7.40;76.10
13585;DHT22;6863;48.402;9.994;2023-04-03T10:48:04;7.40;75.80
13585;DHT22;6863;48.402;9.994;2023-04-03T10:55:57;7.40;74.50
13585;DHT22;6863;48.402;9.994;2023-04-03T10:58:42;7.30;76.00
13585;DHT22;6863;48.402;9.994;2023-04-03T11:01:16;7.10;75.60
13585;DHT22;6863;48.402;9.994;2023-04-03T11:03:53;7.20;77.60
13585;DHT22;6863;48.402;9.994;2023-04-03T11:06:21;7.30;78.60
13585;DHT22;6863;48.402;9.994;2023-04-03T11:09:00;7.40;79.60
13585;DHT22;6863;48.402;9.994;2023-04-03T11:11:34;7.90;78.20
13585;DHT22;6863;48.402;9.994;2023-04-03T11:14:24;8.40;77.30
13585;DHT22;6863;48.402;9.994;2023-04-03T11:17:04;8.80;77.80
13585;DHT22;6863;48.402;9.994;2023-04-03T11:19:41;9.20;77.80
13585;DHT22;6863;48.402;9.994;2023-04-03T11:22:23;9.60;76.10
13585;DHT22;6863;48.402;9.994;2023-04-03T11:27:49;10.20;72.10
13585;DHT22;6863;48.402;9.994;2023-04-03T11:30:23;10.30;70.80
13585;DHT22;6863;48.402;9.994;2023-04-03T11:36:04;10.00;69.60
13585;DHT22;6863;48.402;9.994;2023-04-03T11:38:33;10.10;67.40
13585;DHT22;6863;48.402;9.994;2023-04-03T11:41:03;9.90;70.10
13585;DHT22;6863;48.402;9.994;2023-04-03T11:43:31;10.30;67.00
13585;DHT22;6863;48.402;9.994;2023-04-03T11:46:08;10.50;65.50
13585;DHT22;6863;48.402;9.994;2023-04-03T11:53:53;10.10;65.20
13585;DHT22;6863;48.402;9.994;2023-04-03T12:01:56;9.50;69.90
13585;DHT22;6863;48.402;9.994;2023-04-03T12:04:25;9.70;69.60
13585;DHT22;6863;48.402;9.994;2023-04-03T12:07:01;9.90;68.60
13585;DHT22;6863;48.402;9.994;2023-04-03T12:12:30;9.50;67.80
13585;DHT22;6863;48.402;9.994;2023-04-03T12:15:12;9.20;67.50
13585;DHT22;6863;48.402;9.994;2023-04-03T12:17:38;8.70;67.40
13585;DHT22;6863;48.402;9.994;2023-04-03T12:21:10;8.40;70.50
13585;DHT22;6863;48.402;9.994;2023-04-03T12:23:32;8.70;70.80
13585;DHT22;6863;48.402;9.994;2023-04-03T12:26:20;8.30;70.70
13585;DHT22;6863;48.402;9.994;2023-04-03T12:28:48;8.00;70.60
13585;DHT22;6863;48.402;9.994;2023-04-03T12:31:15;7.70;70.30
13585;DHT22;6863;48.402;9.994;2023-04-03T12:45:25;7.60;73.60
13585;DHT22;6863;48.402;9.994;2023-04-03T12:47:54;7.80;72.20
13585;DHT22;6863;48.402;9.994;2023-04-03T12:53:10;8.50;71.80
13585;DHT22;6863;48.402;9.994;2023-04-03T12:55:37;8.70;71.00
13585;DHT22;6863;48.402;9.994;2023-04-03T12:58:22;9.10;70.10
13585;DHT22;6863;48.402;9.994;2023-04-03T13:01:11;8.80;67.80
13585;DHT22;6863;48.402;9.994;2023-04-03T13:03:49;8.80;68.00
13585;DHT22;6863;48.402;9.994;2023-04-03T13:06:21;8.70;67.50
13585;DHT22;6863;48.402;9.994;2023-04-03T13:08:49;8.90;67.30
13585;DHT22;6863;48.402;9.994;2023-04-03T13:11:15;8.70;67.60
13585;DHT22;6863;48.402;9.994;2023-04-03T13:13:54;8.70;68.90
13585;DHT22;6863;48.402;9.994;2023-04-03T13:16:20;8.80;68.00
13585;DHT22;6863;48.402;9.994;2023-04-03T13:18:51;8.70;66.30
13585;DHT22;6863;48.402;9.994;2023-04-03T13:21:21;8.70;66.10
13585;DHT22;6863;48.402;9.994;2023-04-03T13:23:50;8.40;65.30
13585;DHT22;6863;48.402;9.994;2023-04-03T13:26:18;8.20;64.70
13585;DHT22;6863;48.402;9.994;2023-04-03T13:28:54;8.10;65.70
13585;DHT22;6863;48.402;9.994;2023-04-03T13:31:43;8.20;65.60
13585;DHT22;6863;48.402;9.994;2023-04-03T13:34:29;8.20;65.10
13585;DHT22;6863;48.402;9.994;2023-04-03T13:37:01;8.40;65.10
13585;DHT22;6863;48.402;9.994;2023-04-03T13:39:34;8.50;66.00
13585;DHT22;6863;48.402;9.994;2023-04-03T13:42:13;8.50;65.10
13585;DHT22;6863;48.402;9.994;2023-04-03T13:44:40;8.60;64.40
13585;DHT22;6863;48.402;9.994;2023-04-03T13:47:25;8.60;64.50
13585;DHT22;6863;48.402;9.994;2023-04-03T13:50:03;8.50;64.90
13585;DHT22;6863;48.402;9.994;2023-04-03T13:52:43;8.30;65.30
13585;DHT22;6863;48.402;9.994;2023-04-03T13:55:33;8.20;64.80
13585;DHT22;6863;48.402;9.994;2023-04-03T14:00:39;9.30;63.30
13585;DHT22;6863;48.402;9.994;2023-04-03T14:03:40;9.50;62.20
13585;DHT22;6863;48.402;9.994;2023-04-03T14:06:10;10.10;59.20
13585;DHT22;6863;48.402;9.994;2023-04-03T14:08:35;10.30;58.60
13585;DHT22;6863;48.402;9.994;2023-04-03T14:11:02;12.40;55.70
13585;DHT22;6863;48.402;9.994;2023-04-03T14:13:31;16.50;48.50
13585;DHT22;6863;48.402;9.994;2023-04-03T14:15:57;19.40;38.70
13585;DHT22;6863;48.402;9.994;2023-04-03T14:18:22;20.50;35.40
13585;DHT22;6863;48.402;9.994;2023-04-03T14:20:49;21.80;32.90
13585;DHT22;6863;48.402;9.994;2023-04-03T14:23:15;22.30;29.70
13585;DHT22;6863;48.402;9.994;2023-04-03T14:25:41;19.50;29.60
13585;DHT22;6863;48.402;9.994;2023-04-03T14:28:19;16.20;33.40
13585;DHT22;6863;48.402;9.994;2023-04-03T14:30:47;14.40;36.30
13585;DHT22;6863;48.402;9.994;2023-04-03T14:33:15;13.40;39.40
13585;DHT22;6863;48.402;9.994;2023-04-03T14:35:42;12.70;41.00
13585;DHT22;6863;48.402;9.994;2023-04-03T14:38:24;12.10;42.70
13585;DHT22;6863;48.402;9.994;2023-04-03T14:40:52;11.90;44.10
13585;DHT22;6863;48.402;9.994;2023-04-03T14:43:18;12.30;44.00
13585;DHT22;6863;48.402;9.994;2023-04-03T14:45:44;14.40;41.10
13585;DHT22;6863;48.402;9.994;2023-04-03T14:48:20;15.00;39.50
13585;DHT22;6863;48.402;9.994;2023-04-03T14:50:47;14.00;39.10
13585;DHT22;6863;48.402;9.994;2023-04-03T14:53:14;12.50;40.40
13585;DHT22;6863;48.402;9.994;2023-04-03T14:55:41;11.50;43.40
13585;DHT22;6863;48.402;9.994;2023-04-03T14:58:11;10.70;45.30
13585;DHT22;6863;48.402;9.994;2023-04-03T15:00:38;10.30;46.90
13585;DHT22;6863;48.402;9.994;2023-04-03T15:03:03;9.90;47.90
13585;DHT22;6863;48.402;9.994;2023-04-03T15:05:29;9.40;49.00
13585;DHT22;6863;48.402;9.994;2023-04-03T15:07:55;9.20;50.10
13585;DHT22;6863;48.402;9.994;2023-04-03T15:10:27;8.90;50.80
13585;DHT22;6863;48.402;9.994;2023-04-03T15:12:53;8.80;51.00
13585;DHT22;6863;48.402;9.994;2023-04-03T15:15:20;8.60;51.00
13585;DHT22;6863;48.402;9.994;2023-04-03T15:17:48;8.30;51.60
13585;DHT22;6863;48.402;9.994;2023-04-03T15:20:21;8.30;52.10
13585;DHT22;6863;48.402;9.994;2023-04-03T15:22:48;8.30;51.60
13585;DHT22;6863;48.402;9.994;2023-04-03T15:25:14;8.20;51.50
13585;DHT22;6863;48.402;9.994;2023-04-03T15:27:40;8.80;50.60
13585;DHT22;6863;48.402;9.994;2023-04-03T15:30:11;9.60;50.00
13585;DHT22;6863;48.402;9.994;2023-04-03T15:32:38;10.20;47.40
13585;DHT22;6863;48.402;9.994;2023-04-03T15:35:04;11.20;45.40
13585;DHT22;6863;48.402;9.994;2023-04-03T15:37:30;12.00;43.90
13585;DHT22;6863;48.402;9.994;2023-04-03T15:39:55;13.60;42.20
13585;DHT22;6863;48.402;9.994;2023-04-03T15:42:21;13.90;39.30
13585;DHT22;6863;48.402;9.994;2023-04-03T15:44:46;12.70;38.80
13585;DHT22;6863;48.402;9.994;2023-04-03T15:47:12;12.50;40.20
13585;DHT22;6863;48.402;9.994;2023-04-03T15:49:38;12.00;40.40
13585;DHT22;6863;48.402;9.994;2023-04-03T15:52:04;12.00;41.70
13585;DHT22;6863;48.402;9.994;2023-04-03T15:54:29;12.00;41.70
13585;DHT22;6863;48.402;9.994;2023-04-03T15:56:55;11.50;41.70
13585;DHT22;6863;48.402;9.994;2023-04-03T15:59:22;10.60;42.90
13585;DHT22;6863;48.402;9.994;2023-04-03T16:01:48;10.10;43.90
13585;DHT22;6863;48.402;9.994;2023-04-03T16:04:15;9.40;46.70
13585;DHT22;6863;48.402;9.994;2023-04-03T16:06:41;9.10;46.70
13585;DHT22;6863;48.402;9.994;2023-04-03T16:09:08;8.80;46.90
13585;DHT22;6863;48.402;9.994;2023-04-03T16:11:33;8.30;47.80
13585;DHT22;6863;48.402;9.994;2023-04-03T16:14:01;8.10;47.90
13585;DHT22;6863;48.402;9.994;2023-04-03T16:16:26;7.90;47.30
13585;DHT22;6863;48.402;9.994;2023-04-03T16:18:54;7.80;48.20
13585;DHT22;6863;48.402;9.994;2023-04-03T16:21:21;7.70;47.90
13585;DHT22;6863;48.402;9.994;2023-04-03T16:23:47;7.60;48.40
13585;DHT22;6863;48.402;9.994;2023-04-03T16:26:12;7.60;48.70
13585;DHT22;6863;48.402;9.994;2023-04-03T16:28:38;7.40;48.70
13585;DHT22;6863;48.402;9.994;2023-04-03T16:31:08;7.30;49.20
13585;DHT22;6863;48.402;9.994;2023-04-03T16:33:34;7.10;50.20
13585;DHT22;6863;48.402;9.994;2023-04-03T16:36:00;7.00;50.70
13585;DHT22;6863;48.402;9.994;2023-04-03T16:38:26;6.90;50.90
13585;DHT22;6863;48.402;9.994;2023-04-03T16:40:51;6.90;51.20
13585;DHT22;6863;48.402;9.994;2023-04-03T16:43:22;6.80;51.60
13585;DHT22;6863;48.402;9.994;2023-04-03T16:45:48;6.80;52.00
13585;DHT22;6863;48.402;9.994;2023-04-03T16:48:16;6.80;53.00
13585;DHT22;6863;48.402;9.994;2023-04-03T16:50:46;6.70;53.40
13585;DHT22;6863;48.402;9.994;2023-04-03T16:53:13;6.60;53.30
13585;DHT22;6863;48.402;9.994;2023-04-03T16:55:41;6.50;53.70
13585;DHT22;6863;48.402;9.994;2023-04-03T16:58:09;6.30;54.10
13585;DHT22;6863;48.402;9.994;2023-04-03T17:00:35;6.30;53.80
13585;DHT22;6863;48.402;9.994;2023-04-03T17:03:02;6.30;54.20
13585;DHT22;6863;48.402;9.994;2023-04-03T17:05:27;6.30;54.60
13585;DHT22;6863;48.402;9.994;2023-04-03T17:07:53;6.20;54.70
13585;DHT22;6863;48.402;9.994;2023-04-03T17:10:19;6.10;54.90
13585;DHT22;6863;48.402;9.994;2023-04-03T17:12:44;6.10;54.70
13585;DHT22;6863;48.402;9.994;2023-04-03T17:15:10;6.10;53.70
13585;DHT22;6863;48.402;9.994;2023-04-03T17:17:36;6.00;53.20
13585;DHT22;6863;48.402;9.994;2023-04-03T17:20:02;6.00;52.80
13585;DHT22;6863;48.402;9.994;2023-04-03T17:22:29;5.80;53.20
13585;DHT22;6863;48.402;9.994;2023-04-03T17:24:55;5.70;53.60